Egeland, North Dakota
Current Conditions -  °F | °C
As of 3:55 AM on Saturday 29 Nov 2014 (Local Time) from K9D7 Reporting Station
Overcast Overcast  
Wind Chill: 16°   Ceiling: 800
Heat Index: 16°   Visibility: 9mi
Dew Point: 14°   Wind: 0mph
Humidity: 93%   Direction: NA
Pressure: 29.42"   Gusts: NA
Location:  48.63°N, 99.1°W
Report Text: K9D7 290955Z AUTO 00000KT 9SM OVC008 M09/M10 A2942 RMK AO2
Loading
Personal Weather Stations






























Interactive Weather Map New forecast layout! Learn more

10-Day Weather Forecast

Advertisements
Track Severe Weather on mobile